sensor_id;sensor_type;location;lat;lon;timestamp;P1;durP1;ratioP1;P2;durP2;ratioP2
53309;SDS011;39197;53.200;5.792;2023-05-19T00:00:16;15.73;;;5.93;;
53309;SDS011;39197;53.200;5.792;2023-05-19T00:02:42;19.38;;;7.75;;
53309;SDS011;39197;53.200;5.792;2023-05-19T00:05:09;15.23;;;5.63;;
53309;SDS011;39197;53.200;5.792;2023-05-19T00:07:37;16.45;;;6.15;;
53309;SDS011;39197;53.200;5.792;2023-05-19T00:10:03;14.93;;;5.75;;
53309;SDS011;39197;53.200;5.792;2023-05-19T00:12:30;14.52;;;5.20;;
53309;SDS011;39197;53.200;5.792;2023-05-19T00:14:56;12.90;;;7.15;;
53309;SDS011;39197;53.200;5.792;2023-05-19T00:17:22;16.98;;;5.78;;
53309;SDS011;39197;53.200;5.792;2023-05-19T00:19:47;14.23;;;6.43;;
53309;SDS011;39197;53.200;5.792;2023-05-19T00:22:13;17.05;;;6.72;;
53309;SDS011;39197;53.200;5.792;2023-05-19T00:24:39;17.30;;;6.88;;
53309;SDS011;39197;53.200;5.792;2023-05-19T00:27:05;19.35;;;10.13;;
53309;SDS011;39197;53.200;5.792;2023-05-19T00:29:30;19.88;;;7.53;;
53309;SDS011;39197;53.200;5.792;2023-05-19T00:31:56;13.50;;;6.40;;
53309;SDS011;39197;53.200;5.792;2023-05-19T00:34:22;10.93;;;5.03;;
53309;SDS011;39197;53.200;5.792;2023-05-19T00:36:47;13.18;;;5.00;;
53309;SDS011;39197;53.200;5.792;2023-05-19T00:39:13;19.30;;;9.13;;
53309;SDS011;39197;53.200;5.792;2023-05-19T00:41:39;14.60;;;6.95;;
53309;SDS011;39197;53.200;5.792;2023-05-19T00:44:05;18.48;;;6.32;;
53309;SDS011;39197;53.200;5.792;2023-05-19T00:46:31;16.35;;;5.72;;
53309;SDS011;39197;53.200;5.792;2023-05-19T00:48:57;31.48;;;17.48;;
53309;SDS011;39197;53.200;5.792;2023-05-19T00:51:23;16.73;;;8.00;;
53309;SDS011;39197;53.200;5.792;2023-05-19T00:53:50;15.85;;;6.50;;
53309;SDS011;39197;53.200;5.792;2023-05-19T00:56:16;15.55;;;5.30;;
53309;SDS011;39197;53.200;5.792;2023-05-19T00:58:43;16.73;;;6.68;;
53309;SDS011;39197;53.200;5.792;2023-05-19T01:01:09;17.80;;;5.80;;
53309;SDS011;39197;53.200;5.792;2023-05-19T01:03:36;9.48;;;4.75;;
53309;SDS011;39197;53.200;5.792;2023-05-19T01:06:04;12.02;;;5.22;;
53309;SDS011;39197;53.200;5.792;2023-05-19T01:08:31;14.40;;;6.13;;
53309;SDS011;39197;53.200;5.792;2023-05-19T01:10:58;19.98;;;6.78;;
53309;SDS011;39197;53.200;5.792;2023-05-19T01:13:24;23.70;;;9.43;;
53309;SDS011;39197;53.200;5.792;2023-05-19T01:18:28;28.00;;;13.00;;
53309;SDS011;39197;53.200;5.792;2023-05-19T01:24:31;13.65;;;4.82;;
53309;SDS011;39197;53.200;5.792;2023-05-19T01:32:49;13.82;;;4.38;;
53309;SDS011;39197;53.200;5.792;2023-05-19T01:35:17;14.65;;;5.95;;
53309;SDS011;39197;53.200;5.792;2023-05-19T01:37:44;17.33;;;5.45;;
53309;SDS011;39197;53.200;5.792;2023-05-19T01:40:11;17.83;;;6.25;;
53309;SDS011;39197;53.200;5.792;2023-05-19T01:42:37;14.90;;;5.47;;
53309;SDS011;39197;53.200;5.792;2023-05-19T01:45:05;13.02;;;5.35;;
53309;SDS011;39197;53.200;5.792;2023-05-19T01:47:35;16.05;;;5.35;;
53309;SDS011;39197;53.200;5.792;2023-05-19T01:50:04;12.95;;;5.20;;
53309;SDS011;39197;53.200;5.792;2023-05-19T01:52:31;16.58;;;6.20;;
53309;SDS011;39197;53.200;5.792;2023-05-19T01:54:57;17.83;;;5.70;;
53309;SDS011;39197;53.200;5.792;2023-05-19T01:57:31;18.65;;;6.28;;
53309;SDS011;39197;53.200;5.792;2023-05-19T02:03:23;16.15;;;6.32;;
53309;SDS011;39197;53.200;5.792;2023-05-19T02:05:58;13.98;;;5.55;;
53309;SDS011;39197;53.200;5.792;2023-05-19T02:08:29;19.58;;;8.07;;
53309;SDS011;39197;53.200;5.792;2023-05-19T02:13:55;37.42;;;18.73;;
53309;SDS011;39197;53.200;5.792;2023-05-19T02:16:26;20.05;;;7.72;;
53309;SDS011;39197;53.200;5.792;2023-05-19T02:18:53;23.48;;;9.23;;
53309;SDS011;39197;53.200;5.792;2023-05-19T02:21:19;14.98;;;8.60;;
53309;SDS011;39197;53.200;5.792;2023-05-19T02:23:45;19.85;;;10.63;;
53309;SDS011;39197;53.200;5.792;2023-05-19T02:26:11;19.70;;;7.05;;
53309;SDS011;39197;53.200;5.792;2023-05-19T02:28:37;16.77;;;6.97;;
53309;SDS011;39197;53.200;5.792;2023-05-19T02:31:02;40.28;;;29.10;;
53309;SDS011;39197;53.200;5.792;2023-05-19T02:33:32;21.38;;;9.88;;
53309;SDS011;39197;53.200;5.792;2023-05-19T02:35:58;19.75;;;9.07;;
53309;SDS011;39197;53.200;5.792;2023-05-19T02:38:24;19.00;;;7.47;;
53309;SDS011;39197;53.200;5.792;2023-05-19T02:40:50;19.58;;;7.93;;
53309;SDS011;39197;53.200;5.792;2023-05-19T02:43:16;14.50;;;6.97;;
53309;SDS011;39197;53.200;5.792;2023-05-19T02:45:42;14.15;;;6.80;;
53309;SDS011;39197;53.200;5.792;2023-05-19T02:48:07;13.38;;;6.68;;
53309;SDS011;39197;53.200;5.792;2023-05-19T02:50:33;13.30;;;5.75;;
53309;SDS011;39197;53.200;5.792;2023-05-19T02:52:59;17.20;;;6.60;;
53309;SDS011;39197;53.200;5.792;2023-05-19T02:55:25;17.73;;;6.90;;
53309;SDS011;39197;53.200;5.792;2023-05-19T02:57:50;13.02;;;6.50;;
53309;SDS011;39197;53.200;5.792;2023-05-19T03:00:16;14.40;;;5.68;;
53309;SDS011;39197;53.200;5.792;2023-05-19T03:02:41;18.20;;;6.90;;
53309;SDS011;39197;53.200;5.792;2023-05-19T03:05:08;12.80;;;5.47;;
53309;SDS011;39197;53.200;5.792;2023-05-19T03:07:34;19.17;;;6.93;;
53309;SDS011;39197;53.200;5.792;2023-05-19T03:10:00;19.20;;;5.65;;
53309;SDS011;39197;53.200;5.792;2023-05-19T03:12:28;15.63;;;5.95;;
53309;SDS011;39197;53.200;5.792;2023-05-19T03:14:53;11.90;;;5.78;;
53309;SDS011;39197;53.200;5.792;2023-05-19T03:17:19;17.73;;;5.63;;
53309;SDS011;39197;53.200;5.792;2023-05-19T03:19:45;20.70;;;7.10;;
53309;SDS011;39197;53.200;5.792;2023-05-19T03:22:10;16.58;;;6.55;;
53309;SDS011;39197;53.200;5.792;2023-05-19T03:24:36;19.42;;;6.45;;
53309;SDS011;39197;53.200;5.792;2023-05-19T03:27:02;15.10;;;5.68;;
53309;SDS011;39197;53.200;5.792;2023-05-19T03:29:29;16.55;;;5.80;;
53309;SDS011;39197;53.200;5.792;2023-05-19T03:31:55;17.23;;;7.30;;
53309;SDS011;39197;53.200;5.792;2023-05-19T03:34:21;18.85;;;6.10;;
53309;SDS011;39197;53.200;5.792;2023-05-19T03:36:46;14.10;;;5.55;;
53309;SDS011;39197;53.200;5.792;2023-05-19T03:39:14;13.48;;;5.50;;
53309;SDS011;39197;53.200;5.792;2023-05-19T03:41:40;13.43;;;4.60;;
53309;SDS011;39197;53.200;5.792;2023-05-19T03:44:05;13.05;;;4.65;;
53309;SDS011;39197;53.200;5.792;2023-05-19T03:46:31;15.48;;;5.72;;
53309;SDS011;39197;53.200;5.792;2023-05-19T03:48:57;16.67;;;5.57;;
53309;SDS011;39197;53.200;5.792;2023-05-19T03:51:22;13.57;;;4.90;;
53309;SDS011;39197;53.200;5.792;2023-05-19T03:53:48;13.35;;;5.20;;
53309;SDS011;39197;53.200;5.792;2023-05-19T03:56:13;16.00;;;5.43;;
53309;SDS011;39197;53.200;5.792;2023-05-19T03:58:42;12.90;;;4.70;;
53309;SDS011;39197;53.200;5.792;2023-05-19T04:01:09;13.30;;;5.65;;
53309;SDS011;39197;53.200;5.792;2023-05-19T04:03:35;21.02;;;5.82;;
53309;SDS011;39197;53.200;5.792;2023-05-19T04:06:00;15.45;;;5.97;;
53309;SDS011;39197;53.200;5.792;2023-05-19T04:08:26;17.00;;;5.30;;
53309;SDS011;39197;53.200;5.792;2023-05-19T04:10:52;21.70;;;6.40;;
53309;SDS011;39197;53.200;5.792;2023-05-19T04:13:17;19.60;;;5.72;;
53309;SDS011;39197;53.200;5.792;2023-05-19T04:15:43;12.52;;;6.72;;
53309;SDS011;39197;53.200;5.792;2023-05-19T04:18:09;19.33;;;6.38;;
53309;SDS011;39197;53.200;5.792;2023-05-19T04:20:35;22.75;;;8.13;;
53309;SDS011;39197;53.200;5.792;2023-05-19T04:23:00;16.65;;;7.47;;
53309;SDS011;39197;53.200;5.792;2023-05-19T04:25:26;14.98;;;7.38;;
53309;SDS011;39197;53.200;5.792;2023-05-19T04:27:52;16.85;;;7.25;;
53309;SDS011;39197;53.200;5.792;2023-05-19T04:30:21;16.77;;;6.25;;
53309;SDS011;39197;53.200;5.792;2023-05-19T04:32:48;18.13;;;7.22;;
53309;SDS011;39197;53.200;5.792;2023-05-19T04:35:17;21.90;;;7.10;;
53309;SDS011;39197;53.200;5.792;2023-05-19T04:37:43;22.42;;;6.68;;
53309;SDS011;39197;53.200;5.792;2023-05-19T04:40:12;15.55;;;6.93;;
53309;SDS011;39197;53.200;5.792;2023-05-19T04:42:38;15.57;;;5.47;;
53309;SDS011;39197;53.200;5.792;2023-05-19T04:45:07;17.70;;;4.60;;
53309;SDS011;39197;53.200;5.792;2023-05-19T04:47:33;14.98;;;5.20;;
53309;SDS011;39197;53.200;5.792;2023-05-19T04:50:02;14.70;;;5.35;;
53309;SDS011;39197;53.200;5.792;2023-05-19T04:52:28;18.15;;;4.65;;
53309;SDS011;39197;53.200;5.792;2023-05-19T04:54:54;13.63;;;5.07;;
53309;SDS011;39197;53.200;5.792;2023-05-19T04:57:20;18.77;;;5.93;;
53309;SDS011;39197;53.200;5.792;2023-05-19T04:59:46;17.45;;;6.22;;
53309;SDS011;39197;53.200;5.792;2023-05-19T05:02:12;23.58;;;6.63;;
53309;SDS011;39197;53.200;5.792;2023-05-19T05:04:37;15.10;;;5.88;;
53309;SDS011;39197;53.200;5.792;2023-05-19T05:07:06;17.50;;;5.18;;
53309;SDS011;39197;53.200;5.792;2023-05-19T05:09:32;16.92;;;5.68;;
53309;SDS011;39197;53.200;5.792;2023-05-19T05:11:58;17.88;;;6.82;;
53309;SDS011;39197;53.200;5.792;2023-05-19T05:14:24;19.27;;;7.40;;
53309;SDS011;39197;53.200;5.792;2023-05-19T05:16:51;16.70;;;5.40;;
53309;SDS011;39197;53.200;5.792;2023-05-19T05:19:17;20.25;;;6.55;;
53309;SDS011;39197;53.200;5.792;2023-05-19T05:21:42;17.05;;;6.55;;
53309;SDS011;39197;53.200;5.792;2023-05-19T05:24:09;19.75;;;6.40;;
53309;SDS011;39197;53.200;5.792;2023-05-19T05:26:35;26.13;;;9.27;;
53309;SDS011;39197;53.200;5.792;2023-05-19T05:29:01;16.33;;;6.15;;
53309;SDS011;39197;53.200;5.792;2023-05-19T05:31:27;26.95;;;14.40;;
53309;SDS011;39197;53.200;5.792;2023-05-19T05:33:53;16.70;;;5.38;;
53309;SDS011;39197;53.200;5.792;2023-05-19T05:36:19;21.58;;;6.32;;
53309;SDS011;39197;53.200;5.792;2023-05-19T05:38:45;15.27;;;5.53;;
53309;SDS011;39197;53.200;5.792;2023-05-19T05:41:10;23.17;;;10.60;;
53309;SDS011;39197;53.200;5.792;2023-05-19T05:43:36;23.40;;;10.77;;
53309;SDS011;39197;53.200;5.792;2023-05-19T05:46:01;13.55;;;5.45;;
53309;SDS011;39197;53.200;5.792;2023-05-19T05:48:27;20.48;;;12.55;;
53309;SDS011;39197;53.200;5.792;2023-05-19T05:50:53;21.65;;;6.90;;
53309;SDS011;39197;53.200;5.792;2023-05-19T05:53:20;19.80;;;9.25;;
53309;SDS011;39197;53.200;5.792;2023-05-19T05:55:50;19.10;;;7.05;;
53309;SDS011;39197;53.200;5.792;2023-05-19T05:58:15;13.05;;;5.88;;
53309;SDS011;39197;53.200;5.792;2023-05-19T06:00:41;17.83;;;5.70;;
53309;SDS011;39197;53.200;5.792;2023-05-19T06:03:07;16.02;;;8.68;;
53309;SDS011;39197;53.200;5.792;2023-05-19T06:05:34;15.32;;;5.57;;
53309;SDS011;39197;53.200;5.792;2023-05-19T06:08:01;14.93;;;5.57;;
53309;SDS011;39197;53.200;5.792;2023-05-19T06:10:27;22.25;;;7.90;;
53309;SDS011;39197;53.200;5.792;2023-05-19T06:12:54;22.30;;;9.40;;
53309;SDS011;39197;53.200;5.792;2023-05-19T06:15:20;17.52;;;6.00;;
53309;SDS011;39197;53.200;5.792;2023-05-19T06:17:46;15.38;;;4.43;;
53309;SDS011;39197;53.200;5.792;2023-05-19T06:20:12;15.38;;;3.88;;
53309;SDS011;39197;53.200;5.792;2023-05-19T06:22:39;15.63;;;4.97;;
53309;SDS011;39197;53.200;5.792;2023-05-19T06:25:05;14.35;;;5.38;;
53309;SDS011;39197;53.200;5.792;2023-05-19T06:27:33;17.77;;;6.75;;
53309;SDS011;39197;53.200;5.792;2023-05-19T06:29:59;13.77;;;5.90;;
53309;SDS011;39197;53.200;5.792;2023-05-19T06:32:25;13.75;;;5.13;;
53309;SDS011;39197;53.200;5.792;2023-05-19T06:34:51;14.90;;;4.95;;
53309;SDS011;39197;53.200;5.792;2023-05-19T06:37:22;14.77;;;3.95;;
53309;SDS011;39197;53.200;5.792;2023-05-19T06:39:48;12.20;;;4.47;;
53309;SDS011;39197;53.200;5.792;2023-05-19T06:42:16;18.83;;;7.07;;
53309;SDS011;39197;53.200;5.792;2023-05-19T06:44:50;12.82;;;3.80;;
53309;SDS011;39197;53.200;5.792;2023-05-19T06:47:17;14.68;;;4.22;;
53309;SDS011;39197;53.200;5.792;2023-05-19T06:49:46;15.60;;;3.63;;
53309;SDS011;39197;53.200;5.792;2023-05-19T06:52:20;10.40;;;3.90;;
53309;SDS011;39197;53.200;5.792;2023-05-19T06:54:48;10.50;;;3.08;;
53309;SDS011;39197;53.200;5.792;2023-05-19T06:57:14;9.55;;;2.80;;
53309;SDS011;39197;53.200;5.792;2023-05-19T06:59:40;13.13;;;4.38;;
53309;SDS011;39197;53.200;5.792;2023-05-19T07:02:07;12.63;;;3.30;;
53309;SDS011;39197;53.200;5.792;2023-05-19T07:04:33;12.15;;;3.30;;
53309;SDS011;39197;53.200;5.792;2023-05-19T07:07:00;10.65;;;3.88;;
53309;SDS011;39197;53.200;5.792;2023-05-19T07:09:26;15.85;;;5.68;;
53309;SDS011;39197;53.200;5.792;2023-05-19T07:11:51;15.65;;;5.13;;
53309;SDS011;39197;53.200;5.792;2023-05-19T07:14:17;8.85;;;3.75;;
53309;SDS011;39197;53.200;5.792;2023-05-19T07:16:44;10.80;;;2.97;;
53309;SDS011;39197;53.200;5.792;2023-05-19T07:19:10;13.73;;;7.82;;
53309;SDS011;39197;53.200;5.792;2023-05-19T07:24:28;9.52;;;3.08;;
53309;SDS011;39197;53.200;5.792;2023-05-19T07:26:55;9.20;;;3.05;;
53309;SDS011;39197;53.200;5.792;2023-05-19T07:29:21;12.52;;;2.83;;
53309;SDS011;39197;53.200;5.792;2023-05-19T07:31:46;6.88;;;3.08;;
53309;SDS011;39197;53.200;5.792;2023-05-19T07:34:12;7.70;;;3.13;;
53309;SDS011;39197;53.200;5.792;2023-05-19T07:36:38;6.03;;;2.30;;
53309;SDS011;39197;53.200;5.792;2023-05-19T07:39:04;9.30;;;2.42;;
53309;SDS011;39197;53.200;5.792;2023-05-19T07:41:30;7.65;;;2.17;;
53309;SDS011;39197;53.200;5.792;2023-05-19T07:43:55;8.23;;;2.85;;
53309;SDS011;39197;53.200;5.792;2023-05-19T07:46:21;16.58;;;5.63;;
53309;SDS011;39197;53.200;5.792;2023-05-19T07:48:48;13.25;;;5.00;;
53309;SDS011;39197;53.200;5.792;2023-05-19T07:51:14;8.57;;;2.90;;
53309;SDS011;39197;53.200;5.792;2023-05-19T07:53:40;7.70;;;2.22;;
53309;SDS011;39197;53.200;5.792;2023-05-19T07:56:07;8.73;;;3.15;;
53309;SDS011;39197;53.200;5.792;2023-05-19T07:58:39;9.38;;;3.47;;
53309;SDS011;39197;53.200;5.792;2023-05-19T08:01:06;11.50;;;4.80;;
53309;SDS011;39197;53.200;5.792;2023-05-19T08:03:31;8.82;;;3.95;;
53309;SDS011;39197;53.200;5.792;2023-05-19T08:05:57;8.20;;;2.88;;
53309;SDS011;39197;53.200;5.792;2023-05-19T08:08:23;11.20;;;4.75;;
53309;SDS011;39197;53.200;5.792;2023-05-19T08:10:49;7.22;;;2.90;;
53309;SDS011;39197;53.200;5.792;2023-05-19T08:13:15;7.10;;;2.63;;
53309;SDS011;39197;53.200;5.792;2023-05-19T08:15:41;13.73;;;6.68;;
53309;SDS011;39197;53.200;5.792;2023-05-19T08:18:09;7.43;;;2.90;;
53309;SDS011;39197;53.200;5.792;2023-05-19T08:20:35;8.95;;;2.40;;
53309;SDS011;39197;53.200;5.792;2023-05-19T08:23:10;6.25;;;2.80;;
53309;SDS011;39197;53.200;5.792;2023-05-19T08:25:46;11.07;;;3.22;;
53309;SDS011;39197;53.200;5.792;2023-05-19T08:28:12;8.43;;;3.55;;
53309;SDS011;39197;53.200;5.792;2023-05-19T08:30:40;9.95;;;2.78;;
53309;SDS011;39197;53.200;5.792;2023-05-19T08:33:06;7.82;;;3.30;;
53309;SDS011;39197;53.200;5.792;2023-05-19T08:35:45;9.25;;;3.92;;
53309;SDS011;39197;53.200;5.792;2023-05-19T08:38:15;10.00;;;3.88;;
53309;SDS011;39197;53.200;5.792;2023-05-19T08:40:54;26.63;;;12.90;;
53309;SDS011;39197;53.200;5.792;2023-05-19T08:43:32;10.18;;;4.25;;
53309;SDS011;39197;53.200;5.792;2023-05-19T08:49:15;9.88;;;5.13;;
53309;SDS011;39197;53.200;5.792;2023-05-19T08:52:05;6.95;;;3.90;;
53309;SDS011;39197;53.200;5.792;2023-05-19T08:55:24;6.57;;;3.00;;
53309;SDS011;39197;53.200;5.792;2023-05-19T08:57:33;14.45;;;5.25;;
53309;SDS011;39197;53.200;5.792;2023-05-19T09:00:00;7.30;;;3.40;;
53309;SDS011;39197;53.200;5.792;2023-05-19T09:02:32;7.57;;;3.08;;
53309;SDS011;39197;53.200;5.792;2023-05-19T09:05:00;11.23;;;5.75;;
53309;SDS011;39197;53.200;5.792;2023-05-19T09:07:26;9.57;;;4.40;;
53309;SDS011;39197;53.200;5.792;2023-05-19T09:09:55;8.13;;;2.72;;
53309;SDS011;39197;53.200;5.792;2023-05-19T09:12:20;7.43;;;3.00;;
53309;SDS011;39197;53.200;5.792;2023-05-19T09:14:47;7.30;;;4.43;;
53309;SDS011;39197;53.200;5.792;2023-05-19T09:17:12;10.38;;;4.43;;
53309;SDS011;39197;53.200;5.792;2023-05-19T09:19:43;10.75;;;5.25;;
53309;SDS011;39197;53.200;5.792;2023-05-19T09:22:13;9.80;;;4.75;;
53309;SDS011;39197;53.200;5.792;2023-05-19T09:24:40;16.58;;;8.38;;
53309;SDS011;39197;53.200;5.792;2023-05-19T09:27:06;10.30;;;4.00;;
53309;SDS011;39197;53.200;5.792;2023-05-19T09:29:32;10.75;;;4.20;;
53309;SDS011;39197;53.200;5.792;2023-05-19T09:31:58;8.18;;;4.43;;
53309;SDS011;39197;53.200;5.792;2023-05-19T09:34:30;8.30;;;3.75;;
53309;SDS011;39197;53.200;5.792;2023-05-19T09:36:56;7.43;;;3.53;;
53309;SDS011;39197;53.200;5.792;2023-05-19T09:39:23;11.30;;;4.22;;
53309;SDS011;39197;53.200;5.792;2023-05-19T09:41:53;9.95;;;3.42;;
53309;SDS011;39197;53.200;5.792;2023-05-19T09:46:53;8.27;;;3.90;;
53309;SDS011;39197;53.200;5.792;2023-05-19T09:51:55;9.90;;;5.25;;
53309;SDS011;39197;53.200;5.792;2023-05-19T09:54:22;10.10;;;4.40;;
53309;SDS011;39197;53.200;5.792;2023-05-19T09:56:55;10.55;;;3.90;;
53309;SDS011;39197;53.200;5.792;2023-05-19T09:59:25;10.27;;;3.92;;
53309;SDS011;39197;53.200;5.792;2023-05-19T10:01:53;13.38;;;4.47;;
53309;SDS011;39197;53.200;5.792;2023-05-19T10:04:19;10.27;;;4.03;;
53309;SDS011;39197;53.200;5.792;2023-05-19T10:06:47;9.25;;;3.47;;
53309;SDS011;39197;53.200;5.792;2023-05-19T10:09:19;9.40;;;2.87;;
53309;SDS011;39197;53.200;5.792;2023-05-19T10:11:53;9.65;;;3.90;;
53309;SDS011;39197;53.200;5.792;2023-05-19T10:14:23;9.02;;;3.70;;
53309;SDS011;39197;53.200;5.792;2023-05-19T10:16:50;9.30;;;4.18;;
53309;SDS011;39197;53.200;5.792;2023-05-19T10:19:20;10.32;;;4.50;;
53309;SDS011;39197;53.200;5.792;2023-05-19T10:21:47;6.95;;;2.80;;
53309;SDS011;39197;53.200;5.792;2023-05-19T10:24:13;12.18;;;5.30;;
53309;SDS011;39197;53.200;5.792;2023-05-19T10:26:40;7.20;;;3.90;;
53309;SDS011;39197;53.200;5.792;2023-05-19T10:29:09;7.80;;;2.38;;
53309;SDS011;39197;53.200;5.792;2023-05-19T10:31:37;8.52;;;4.30;;
53309;SDS011;39197;53.200;5.792;2023-05-19T10:34:13;8.98;;;3.33;;
53309;SDS011;39197;53.200;5.792;2023-05-19T10:36:51;9.13;;;3.58;;
53309;SDS011;39197;53.200;5.792;2023-05-19T10:39:36;9.52;;;3.72;;
53309;SDS011;39197;53.200;5.792;2023-05-19T10:42:10;9.07;;;3.42;;
53309;SDS011;39197;53.200;5.792;2023-05-19T10:47:29;8.93;;;4.63;;
53309;SDS011;39197;53.200;5.792;2023-05-19T10:49:56;8.23;;;3.90;;
53309;SDS011;39197;53.200;5.792;2023-05-19T10:52:25;13.82;;;6.63;;
53309;SDS011;39197;53.200;5.792;2023-05-19T10:54:50;7.68;;;3.38;;
53309;SDS011;39197;53.200;5.792;2023-05-19T10:57:24;6.07;;;3.22;;
53309;SDS011;39197;53.200;5.792;2023-05-19T10:59:56;9.15;;;3.38;;
53309;SDS011;39197;53.200;5.792;2023-05-19T11:02:35;8.50;;;4.30;;
53309;SDS011;39197;53.200;5.792;2023-05-19T11:05:10;8.38;;;3.97;;
53309;SDS011;39197;53.200;5.792;2023-05-19T11:07:58;9.40;;;5.55;;
53309;SDS011;39197;53.200;5.792;2023-05-19T11:10:33;6.20;;;3.42;;
53309;SDS011;39197;53.200;5.792;2023-05-19T11:12:58;9.35;;;3.88;;
53309;SDS011;39197;53.200;5.792;2023-05-19T11:15:25;6.93;;;2.83;;
53309;SDS011;39197;53.200;5.792;2023-05-19T11:17:54;7.80;;;3.03;;
53309;SDS011;39197;53.200;5.792;2023-05-19T11:20:21;12.50;;;6.63;;
53309;SDS011;39197;53.200;5.792;2023-05-19T11:23:08;8.85;;;4.47;;
53309;SDS011;39197;53.200;5.792;2023-05-19T11:28:14;7.53;;;3.60;;
53309;SDS011;39197;53.200;5.792;2023-05-19T11:30:42;9.60;;;4.97;;
53309;SDS011;39197;53.200;5.792;2023-05-19T11:33:09;11.80;;;3.88;;
53309;SDS011;39197;53.200;5.792;2023-05-19T11:35:37;13.60;;;7.88;;
53309;SDS011;39197;53.200;5.792;2023-05-19T11:38:04;7.45;;;3.63;;
53309;SDS011;39197;53.200;5.792;2023-05-19T11:40:30;10.18;;;3.90;;
53309;SDS011;39197;53.200;5.792;2023-05-19T11:42:57;7.20;;;3.72;;
53309;SDS011;39197;53.200;5.792;2023-05-19T11:45:24;10.23;;;3.22;;
53309;SDS011;39197;53.200;5.792;2023-05-19T11:47:50;10.32;;;5.68;;
53309;SDS011;39197;53.200;5.792;2023-05-19T11:50:16;7.60;;;2.92;;
53309;SDS011;39197;53.200;5.792;2023-05-19T11:52:45;7.85;;;3.05;;
53309;SDS011;39197;53.200;5.792;2023-05-19T11:55:29;7.15;;;3.20;;
53309;SDS011;39197;53.200;5.792;2023-05-19T11:57:58;7.97;;;3.75;;
53309;SDS011;39197;53.200;5.792;2023-05-19T12:00:26;9.30;;;3.47;;
53309;SDS011;39197;53.200;5.792;2023-05-19T12:02:52;7.28;;;3.13;;
53309;SDS011;39197;53.200;5.792;2023-05-19T12:05:22;7.30;;;3.38;;
53309;SDS011;39197;53.200;5.792;2023-05-19T12:07:49;9.00;;;3.80;;
53309;SDS011;39197;53.200;5.792;2023-05-19T12:10:25;12.05;;;5.03;;
53309;SDS011;39197;53.200;5.792;2023-05-19T12:12:53;9.38;;;4.70;;
53309;SDS011;39197;53.200;5.792;2023-05-19T12:15:19;7.10;;;2.70;;
53309;SDS011;39197;53.200;5.792;2023-05-19T12:17:49;6.10;;;2.53;;
53309;SDS011;39197;53.200;5.792;2023-05-19T12:20:20;8.80;;;2.97;;
53309;SDS011;39197;53.200;5.792;2023-05-19T12:22:46;8.65;;;3.10;;
53309;SDS011;39197;53.200;5.792;2023-05-19T12:25:13;5.35;;;2.50;;
53309;SDS011;39197;53.200;5.792;2023-05-19T12:27:41;7.68;;;3.70;;
53309;SDS011;39197;53.200;5.792;2023-05-19T12:30:08;8.15;;;3.47;;
53309;SDS011;39197;53.200;5.792;2023-05-19T12:32:34;9.13;;;2.95;;
53309;SDS011;39197;53.200;5.792;2023-05-19T12:35:03;8.27;;;2.38;;
53309;SDS011;39197;53.200;5.792;2023-05-19T12:37:30;11.52;;;4.70;;
53309;SDS011;39197;53.200;5.792;2023-05-19T12:40:00;6.43;;;3.42;;
53309;SDS011;39197;53.200;5.792;2023-05-19T12:42:27;8.45;;;3.33;;
53309;SDS011;39197;53.200;5.792;2023-05-19T12:47:32;15.13;;;3.75;;
53309;SDS011;39197;53.200;5.792;2023-05-19T12:52:24;11.10;;;3.22;;
53309;SDS011;39197;53.200;5.792;2023-05-19T12:55:01;7.03;;;2.85;;
53309;SDS011;39197;53.200;5.792;2023-05-19T12:57:33;9.05;;;4.78;;
53309;SDS011;39197;53.200;5.792;2023-05-19T13:00:12;10.07;;;4.03;;
53309;SDS011;39197;53.200;5.792;2023-05-19T13:05:26;9.35;;;3.30;;
53309;SDS011;39197;53.200;5.792;2023-05-19T13:07:56;8.80;;;2.63;;
53309;SDS011;39197;53.200;5.792;2023-05-19T13:10:23;9.73;;;4.22;;
53309;SDS011;39197;53.200;5.792;2023-05-19T13:12:56;9.18;;;3.38;;
53309;SDS011;39197;53.200;5.792;2023-05-19T13:15:24;11.68;;;4.93;;
53309;SDS011;39197;53.200;5.792;2023-05-19T13:17:51;12.27;;;4.30;;
53309;SDS011;39197;53.200;5.792;2023-05-19T13:20:18;18.92;;;12.07;;
53309;SDS011;39197;53.200;5.792;2023-05-19T13:22:45;8.95;;;3.80;;
53309;SDS011;39197;53.200;5.792;2023-05-19T13:25:14;10.85;;;5.38;;
53309;SDS011;39197;53.200;5.792;2023-05-19T13:27:41;11.70;;;6.07;;
53309;SDS011;39197;53.200;5.792;2023-05-19T13:30:07;15.50;;;8.70;;
53309;SDS011;39197;53.200;5.792;2023-05-19T13:32:33;12.27;;;5.85;;
53309;SDS011;39197;53.200;5.792;2023-05-19T13:34:59;11.85;;;5.07;;
53309;SDS011;39197;53.200;5.792;2023-05-19T13:37:25;12.00;;;5.88;;
53309;SDS011;39197;53.200;5.792;2023-05-19T13:39:52;13.20;;;6.88;;
53309;SDS011;39197;53.200;5.792;2023-05-19T13:42:18;12.38;;;4.13;;
53309;SDS011;39197;53.200;5.792;2023-05-19T13:44:44;11.43;;;5.00;;
53309;SDS011;39197;53.200;5.792;2023-05-19T13:47:09;8.15;;;4.35;;
53309;SDS011;39197;53.200;5.792;2023-05-19T13:49:35;15.50;;;5.82;;
53309;SDS011;39197;53.200;5.792;2023-05-19T13:52:01;11.90;;;4.40;;
53309;SDS011;39197;53.200;5.792;2023-05-19T13:54:26;14.93;;;6.07;;
53309;SDS011;39197;53.200;5.792;2023-05-19T13:56:52;13.35;;;5.07;;
53309;SDS011;39197;53.200;5.792;2023-05-19T13:59:18;9.75;;;5.13;;
53309;SDS011;39197;53.200;5.792;2023-05-19T14:01:45;10.95;;;3.88;;
53309;SDS011;39197;53.200;5.792;2023-05-19T14:04:12;10.85;;;4.43;;
53309;SDS011;39197;53.200;5.792;2023-05-19T14:06:38;8.40;;;3.33;;
53309;SDS011;39197;53.200;5.792;2023-05-19T14:09:04;9.85;;;4.60;;
53309;SDS011;39197;53.200;5.792;2023-05-19T14:11:30;11.52;;;3.50;;
53309;SDS011;39197;53.200;5.792;2023-05-19T14:13:56;14.73;;;4.55;;
53309;SDS011;39197;53.200;5.792;2023-05-19T14:16:24;10.73;;;3.83;;
53309;SDS011;39197;53.200;5.792;2023-05-19T14:18:52;9.82;;;4.43;;
53309;SDS011;39197;53.200;5.792;2023-05-19T14:21:18;10.48;;;4.03;;
53309;SDS011;39197;53.200;5.792;2023-05-19T14:23:43;11.40;;;3.90;;
53309;SDS011;39197;53.200;5.792;2023-05-19T14:26:11;11.32;;;4.70;;
53309;SDS011;39197;53.200;5.792;2023-05-19T14:28:37;12.20;;;5.35;;
53309;SDS011;39197;53.200;5.792;2023-05-19T14:31:03;11.63;;;5.55;;
53309;SDS011;39197;53.200;5.792;2023-05-19T14:33:30;7.75;;;3.00;;
53309;SDS011;39197;53.200;5.792;2023-05-19T14:35:58;7.85;;;3.08;;
53309;SDS011;39197;53.200;5.792;2023-05-19T14:38:24;9.13;;;2.90;;
53309;SDS011;39197;53.200;5.792;2023-05-19T14:40:50;7.88;;;2.80;;
53309;SDS011;39197;53.200;5.792;2023-05-19T14:43:16;9.45;;;3.40;;
53309;SDS011;39197;53.200;5.792;2023-05-19T14:45:41;15.15;;;7.50;;
53309;SDS011;39197;53.200;5.792;2023-05-19T14:48:08;8.90;;;3.20;;
53309;SDS011;39197;53.200;5.792;2023-05-19T14:50:36;12.35;;;3.47;;
53309;SDS011;39197;53.200;5.792;2023-05-19T14:53:02;10.95;;;4.10;;
53309;SDS011;39197;53.200;5.792;2023-05-19T14:55:27;9.35;;;3.08;;
53309;SDS011;39197;53.200;5.792;2023-05-19T14:57:53;10.63;;;3.25;;
53309;SDS011;39197;53.200;5.792;2023-05-19T15:00:19;8.77;;;3.53;;
53309;SDS011;39197;53.200;5.792;2023-05-19T15:02:45;11.95;;;3.35;;
53309;SDS011;39197;53.200;5.792;2023-05-19T15:05:12;10.48;;;2.78;;
53309;SDS011;39197;53.200;5.792;2023-05-19T15:07:37;11.35;;;4.38;;
53309;SDS011;39197;53.200;5.792;2023-05-19T15:10:03;10.25;;;3.80;;
53309;SDS011;39197;53.200;5.792;2023-05-19T15:12:29;13.35;;;4.07;;
53309;SDS011;39197;53.200;5.792;2023-05-19T15:14:54;10.45;;;3.20;;
53309;SDS011;39197;53.200;5.792;2023-05-19T15:17:20;10.15;;;3.78;;
53309;SDS011;39197;53.200;5.792;2023-05-19T15:19:46;13.60;;;4.97;;
53309;SDS011;39197;53.200;5.792;2023-05-19T15:22:11;8.07;;;3.20;;